Pagrindinis puslapis
METAR-TAF:

METAR-TAF

Oro uostai :

Notodden, Norvegija

platuma: 59-34N, ilguma: 009-13E, Aukštis: 19 m

Dabartinis oras

Ataskaita buvo paskelbta 54 minutes, ne 12:50 UTC
Vėjas 6 kt iš Vakarų/Šiaurės Vakarų
Temperatūra -2°C
Drėgmė 93%
Slėgis 996 hPa
Matomumas: 9000 m
Apsiniaukę ne aukštis 700 ft
Liūtis kaimynystėje

METAR: ENNO 161250Z 29006KT 9000 VCSH OVC007 M02/M03 Q0996

Laikas: 14:44 (13:44 UTC)

Prognozė

Ataskaita buvo paskelbta 2 valandos ir 44 minutes, ne 11:00 UTC
Prognozė galioja nuo 16 metu 12 UTC su 16 metu 18 UTC
Vėjas 5 kt iš Vakarų/Šiaurės Vakarų
Matomumas 10 km arba daugiau
Apsiniaukę ne aukštis 800 ft
Tikimybė 40%
nuo 16 metu 13 UTC su 16 metu 18 UTC
Mažai debesys ne aukštis 800 ft
Išsisklaidę debesys ne aukštis 3000 ft

TAF: ENNO 161100Z 1612/1618 30005KT 9999 OVC008 PROB40 1613/1618 FEW008 SCT030

Orai ataskaitas ir orų prognozės (METAR, TAF).

turimą stotys yra geltonos ir raudonos taškus žemėlapyje.

Perkelti pele per norėdami pamatyti stoties vardą.

Tada spustelėkite, norėdami matyti oro stebėjimo ir prognozės.

Norėdami pakeisti žemėlapį: spustelėkite ant žalios mygtukų su juodo kryžiaus žemyn,; žalią mygtuką su brūkšneliu, jei norite nutolinti; arba žalių rodyklių gretimoms žemėlapius.


METAR-TAF: